createdAt,value
2018-05-27T00:01:47.284Z,75.30
2018-05-27T00:04:16.134Z,75.30
2018-05-27T00:06:44.374Z,75.40
2018-05-27T00:09:12.628Z,75.70
2018-05-27T00:11:40.884Z,76.00
2018-05-27T00:14:09.164Z,76.10
2018-05-27T00:16:38.260Z,76.50
2018-05-27T00:19:08.011Z,76.50
2018-05-27T00:21:36.465Z,76.10
2018-05-27T00:24:04.721Z,76.10
2018-05-27T00:26:32.992Z,76.30
2018-05-27T00:29:01.254Z,75.90
2018-05-27T00:31:29.506Z,76.40
2018-05-27T00:33:58.542Z,76.10
2018-05-27T00:36:27.521Z,76.10
2018-05-27T00:38:55.763Z,76.20
2018-05-27T00:41:24.900Z,76.50
2018-05-27T00:43:53.185Z,76.10
2018-05-27T00:46:21.432Z,76.40
2018-05-27T00:48:49.728Z,76.20
2018-05-27T00:51:19.252Z,76.20
2018-05-27T00:53:59.493Z,76.10
2018-05-27T00:56:28.527Z,76.40
2018-05-27T00:58:56.801Z,76.50
2018-05-27T01:01:25.093Z,76.70
2018-05-27T01:03:53.379Z,76.40
2018-05-27T01:06:21.652Z,76.20
2018-05-27T01:08:49.983Z,76.10
2018-05-27T01:11:18.265Z,76.40
2018-05-27T01:13:46.739Z,77.00
2018-05-27T01:16:15.005Z,77.20
2018-05-27T01:18:44.048Z,77.30
2018-05-27T01:21:13.091Z,77.40
2018-05-27T01:23:41.337Z,77.40
2018-05-27T01:26:09.620Z,77.70
2018-05-27T01:28:37.868Z,78.20
2018-05-27T01:31:06.154Z,78.00
2018-05-27T01:33:35.176Z,78.30
2018-05-27T01:36:03.449Z,78.40
2018-05-27T01:38:31.713Z,78.50
2018-05-27T01:41:00.764Z,78.70
2018-05-27T01:43:29.023Z,78.60
2018-05-27T01:45:57.380Z,78.60
2018-05-27T01:48:25.616Z,78.80
2018-05-27T01:50:53.899Z,79.40
2018-05-27T01:53:22.202Z,79.60
2018-05-27T01:55:51.367Z,79.60
2018-05-27T01:58:19.613Z,80.00
2018-05-27T02:00:48.646Z,80.20
2018-05-27T02:03:16.914Z,80.20
2018-05-27T02:05:45.180Z,80.40
2018-05-27T02:08:14.814Z,80.20
2018-05-27T02:10:43.080Z,80.20
2018-05-27T02:13:12.094Z,80.40
2018-05-27T02:15:40.369Z,80.50
2018-05-27T02:18:08.605Z,80.70
2018-05-27T02:20:36.868Z,81.10
2018-05-27T02:23:05.105Z,81.00
2018-05-27T02:25:34.132Z,81.80
2018-05-27T02:28:02.375Z,81.80
2018-05-27T02:30:31.404Z,82.20
2018-05-27T02:32:59.661Z,82.20
2018-05-27T02:35:27.957Z,82.00
2018-05-27T02:38:02.244Z,82.00
2018-05-27T02:40:30.509Z,82.70
2018-05-27T02:42:59.495Z,83.00
2018-05-27T02:45:28.497Z,83.80
2018-05-27T02:47:56.759Z,84.10
2018-05-27T02:50:25.064Z,84.00
2018-05-27T02:52:53.316Z,84.30
2018-05-27T02:55:21.610Z,84.50
2018-05-27T02:57:50.144Z,83.90
2018-05-27T03:00:18.411Z,83.50
2018-05-27T03:02:46.692Z,83.50
2018-05-27T03:05:14.953Z,83.70
2018-05-27T03:07:43.964Z,83.70
2018-05-27T03:10:12.281Z,83.70
2018-05-27T03:12:41.778Z,83.60
2018-05-27T03:15:10.798Z,84.10
2018-05-27T03:17:39.129Z,84.00
2018-05-27T03:20:07.385Z,84.00
2018-05-27T03:22:35.612Z,83.80
2018-05-27T03:25:03.931Z,83.70
2018-05-27T03:27:32.256Z,84.90
2018-05-27T03:30:00.500Z,85.10
2018-05-27T03:32:28.792Z,85.10
2018-05-27T03:34:57.035Z,84.90
2018-05-27T03:37:26.641Z,84.20
2018-05-27T03:39:55.717Z,84.70
2018-05-27T03:42:23.970Z,84.60
2018-05-27T03:44:52.240Z,84.20
2018-05-27T03:47:20.501Z,84.50
2018-05-27T03:49:48.877Z,85.20
2018-05-27T03:52:17.903Z,85.70
2018-05-27T03:54:46.147Z,85.60
2018-05-27T03:57:15.199Z,85.80
2018-05-27T03:59:43.453Z,85.80
2018-05-27T04:02:12.462Z,86.20
2018-05-27T04:05:01.773Z,86.20
2018-05-27T04:07:41.885Z,86.50
2018-05-27T04:10:10.116Z,86.60
2018-05-27T04:12:40.322Z,85.80
2018-05-27T04:15:08.576Z,85.80
2018-05-27T04:17:36.852Z,85.50
2018-05-27T04:20:05.094Z,85.60
2018-05-27T04:25:14.096Z,84.00
2018-05-27T04:27:43.032Z,84.00
2018-05-27T04:30:12.042Z,83.80
2018-05-27T04:32:40.331Z,83.80
2018-05-27T04:35:08.619Z,83.20
2018-05-27T04:37:36.871Z,83.10
2018-05-27T04:40:05.880Z,83.50
2018-05-27T04:42:34.156Z,83.50
2018-05-27T04:45:03.181Z,83.80
2018-05-27T04:47:31.448Z,83.80
2018-05-27T04:49:59.696Z,84.00
2018-05-27T04:52:28.560Z,84.30
2018-05-27T04:54:56.809Z,84.20
2018-05-27T04:57:25.089Z,84.60
2018-05-27T04:59:53.325Z,84.00
2018-05-27T05:02:21.591Z,83.20
2018-05-27T05:04:50.424Z,83.30
2018-05-27T05:07:19.949Z,83.20
2018-05-27T05:09:49.418Z,82.60
2018-05-27T05:12:17.673Z,82.50
2018-05-27T05:14:46.006Z,82.50
2018-05-27T05:17:15.020Z,82.60
2018-05-27T05:19:43.357Z,81.80
2018-05-27T05:22:11.651Z,81.90
2018-05-27T05:24:39.956Z,81.30
2018-05-27T05:27:08.206Z,81.10
2018-05-27T05:29:36.493Z,80.60
2018-05-27T05:32:05.504Z,80.20
2018-05-27T05:34:33.756Z,80.20
2018-05-27T05:37:02.015Z,80.00
2018-05-27T05:39:30.283Z,80.40
2018-05-27T05:41:58.515Z,80.20
2018-05-27T05:44:26.873Z,79.00
2018-05-27T05:46:55.168Z,80.20
2018-05-27T05:49:23.476Z,79.00
2018-05-27T05:51:52.138Z,78.20
2018-05-27T05:54:20.424Z,78.00
2018-05-27T05:56:48.828Z,77.50
2018-05-27T05:59:18.731Z,77.60
2018-05-27T06:01:46.993Z,77.40
2018-05-27T06:04:15.278Z,77.20
2018-05-27T06:06:43.541Z,76.60
2018-05-27T06:09:11.796Z,76.20
2018-05-27T06:11:40.808Z,75.10
2018-05-27T06:14:09.076Z,75.10
2018-05-27T06:16:38.169Z,73.10
2018-05-27T06:19:07.209Z,72.40
2018-05-27T06:21:35.466Z,72.40
2018-05-27T06:24:03.751Z,70.50
2018-05-27T06:26:32.007Z,70.40
2018-05-27T06:29:01.048Z,70.20
2018-05-27T06:31:29.280Z,70.20
2018-05-27T06:33:58.311Z,67.70
2018-05-27T06:36:26.856Z,67.70
2018-05-27T06:38:55.155Z,67.30
2018-05-27T06:41:24.192Z,66.30
2018-05-27T06:43:52.461Z,66.40
2018-05-27T06:46:21.550Z,65.40
2018-05-27T06:48:50.412Z,66.00
2018-05-27T06:51:18.733Z,66.40
2018-05-27T06:53:46.989Z,63.70
2018-05-27T06:56:15.226Z,63.70
2018-05-27T06:58:43.481Z,62.80
2018-05-27T07:01:11.720Z,61.50
2018-05-27T07:03:40.102Z,60.80
2018-05-27T07:06:08.361Z,58.70
2018-05-27T07:08:36.662Z,60.50
2018-05-27T07:11:04.912Z,61.30
2018-05-27T07:13:33.145Z,60.20
2018-05-27T07:16:02.167Z,59.50
2018-05-27T07:18:30.428Z,59.50
2018-05-27T07:20:59.456Z,57.10
2018-05-27T07:23:27.724Z,57.00
2018-05-27T07:25:56.744Z,56.70
2018-05-27T07:28:24.963Z,56.60
2018-05-27T07:30:53.207Z,55.80
2018-05-27T07:33:21.465Z,55.80
2018-05-27T07:35:51.434Z,55.30
2018-05-27T07:38:19.690Z,55.30
2018-05-27T07:40:47.949Z,54.40
2018-05-27T07:43:16.403Z,53.90
2018-05-27T07:45:44.662Z,53.90
2018-05-27T07:48:13.265Z,53.30
2018-05-27T07:50:41.523Z,54.20
2018-05-27T07:53:09.760Z,54.50
2018-05-27T07:55:38.784Z,55.90
2018-05-27T07:58:07.020Z,55.90
2018-05-27T08:00:36.185Z,55.60
2018-05-27T08:03:04.435Z,55.00
2018-05-27T08:05:32.715Z,55.30
2018-05-27T08:08:01.558Z,56.40
2018-05-27T08:10:31.613Z,55.70
2018-05-27T08:13:00.621Z,55.50
2018-05-27T08:15:28.884Z,55.40
2018-05-27T08:17:57.908Z,54.20
2018-05-27T08:20:26.216Z,54.20
2018-05-27T08:22:54.464Z,55.00
2018-05-27T08:25:24.155Z,55.30
2018-05-27T08:27:53.153Z,56.10
2018-05-27T08:30:21.405Z,56.20
2018-05-27T08:32:49.640Z,56.10
2018-05-27T08:35:18.820Z,54.00
2018-05-27T08:37:47.844Z,54.60
2018-05-27T08:40:16.192Z,53.90
2018-05-27T08:42:44.431Z,53.50
2018-05-27T08:45:12.692Z,53.70
2018-05-27T08:47:40.932Z,51.20
2018-05-27T08:50:09.288Z,50.70
2018-05-27T08:52:37.540Z,50.70
2018-05-27T08:55:05.806Z,50.70
2018-05-27T08:57:34.797Z,49.20
2018-05-27T09:00:03.836Z,50.10
2018-05-27T09:02:32.152Z,50.10
2018-05-27T09:05:00.363Z,50.50
2018-05-27T09:07:28.640Z,51.30
2018-05-27T09:09:58.755Z,49.50
2018-05-27T09:12:31.736Z,49.50
2018-05-27T09:14:59.969Z,48.60
2018-05-27T09:17:28.265Z,49.80
2018-05-27T09:19:56.621Z,49.10
2018-05-27T09:22:25.632Z,48.00
2018-05-27T09:24:54.447Z,47.90
2018-05-27T09:27:23.434Z,47.90
2018-05-27T09:29:51.684Z,47.90
2018-05-27T09:32:19.931Z,47.80
2018-05-27T09:34:49.031Z,48.00
2018-05-27T09:37:17.340Z,46.50
2018-05-27T09:39:47.021Z,47.20
2018-05-27T09:42:15.333Z,47.20
2018-05-27T09:44:43.620Z,46.90
2018-05-27T09:47:12.640Z,46.50
2018-05-27T09:49:40.893Z,46.50
2018-05-27T09:52:09.986Z,46.80
2018-05-27T09:54:39.034Z,46.90
2018-05-27T09:57:07.860Z,46.90
2018-05-27T09:59:36.120Z,46.90
2018-05-27T10:02:05.137Z,45.50
2018-05-27T10:04:33.407Z,45.10
2018-05-27T10:07:01.656Z,45.10
2018-05-27T10:09:29.896Z,45.80
2018-05-27T10:11:58.955Z,45.30
2018-05-27T10:14:27.793Z,45.20
2018-05-27T10:16:56.836Z,44.70
2018-05-27T10:19:25.064Z,45.30
2018-05-27T10:21:54.217Z,45.60
2018-05-27T10:24:22.564Z,44.30
2018-05-27T10:26:51.589Z,43.60
2018-05-27T10:29:19.970Z,43.50
2018-05-27T10:31:48.235Z,41.60
2018-05-27T10:34:17.268Z,42.60
2018-05-27T10:36:45.538Z,42.50
2018-05-27T10:39:13.787Z,42.20
2018-05-27T10:41:42.821Z,41.70
2018-05-27T10:44:11.694Z,41.70
2018-05-27T10:46:40.157Z,42.20
2018-05-27T10:49:10.008Z,40.90
2018-05-27T10:51:38.248Z,40.90
2018-05-27T10:54:06.507Z,42.30
2018-05-27T10:56:35.576Z,43.40
2018-05-27T10:59:03.867Z,44.10
2018-05-27T11:01:32.132Z,42.60
2018-05-27T11:04:00.376Z,42.10
2018-05-27T11:06:28.604Z,41.80
2018-05-27T11:08:56.874Z,42.00
2018-05-27T11:11:25.111Z,41.00
2018-05-27T11:13:53.827Z,40.60
2018-05-27T11:16:22.827Z,39.50
2018-05-27T11:18:51.881Z,39.90
2018-05-27T11:21:20.117Z,39.90
2018-05-27T11:23:48.426Z,39.40
2018-05-27T11:26:16.671Z,38.60
2018-05-27T11:28:46.144Z,38.70
2018-05-27T11:31:14.381Z,38.70
2018-05-27T11:33:42.676Z,39.90
2018-05-27T11:36:10.992Z,40.10
2018-05-27T11:38:39.264Z,39.80
2018-05-27T11:41:07.497Z,40.60
2018-05-27T11:43:35.772Z,40.10
2018-05-27T11:46:04.014Z,40.80
2018-05-27T11:48:33.199Z,40.60
2018-05-27T11:51:02.170Z,41.30
2018-05-27T11:53:30.405Z,41.20
2018-05-27T11:55:58.649Z,43.00
2018-05-27T11:58:26.905Z,42.60
2018-05-27T12:00:55.148Z,43.60
2018-05-27T12:03:24.176Z,42.40
2018-05-27T12:05:52.441Z,41.50
2018-05-27T12:08:21.502Z,41.60
2018-05-27T12:10:49.759Z,41.60
2018-05-27T12:13:18.031Z,40.90
2018-05-27T12:15:46.278Z,41.30
2018-05-27T12:18:15.339Z,42.40
2018-05-27T12:20:44.367Z,42.40
2018-05-27T12:23:12.608Z,42.10
2018-05-27T12:25:40.840Z,41.20
2018-05-27T12:28:09.245Z,40.60
2018-05-27T12:30:38.253Z,41.00
2018-05-27T12:33:06.529Z,41.00
2018-05-27T12:35:34.772Z,41.90
2018-05-27T12:38:03.063Z,42.30
2018-05-27T12:40:32.115Z,43.10
2018-05-27T12:43:01.110Z,42.90
2018-05-27T12:45:29.352Z,42.50
2018-05-27T12:47:58.376Z,42.40
2018-05-27T12:50:26.620Z,42.40
2018-05-27T12:52:55.673Z,44.10
2018-05-27T12:55:23.928Z,44.10
2018-05-27T12:57:52.179Z,44.50
2018-05-27T13:00:21.182Z,45.70
2018-05-27T13:02:50.943Z,46.30
2018-05-27T13:05:19.263Z,46.30
2018-05-27T13:07:47.559Z,47.20
2018-05-27T13:10:15.849Z,48.00
2018-05-27T13:12:44.843Z,46.10
2018-05-27T13:15:13.702Z,46.00
2018-05-27T13:17:41.998Z,47.30
2018-05-27T13:20:10.820Z,53.40
2018-05-27T13:22:40.858Z,59.30
2018-05-27T13:25:09.108Z,59.20
2018-05-27T13:27:38.122Z,63.10
2018-05-27T13:30:07.248Z,64.80
2018-05-27T13:32:35.411Z,64.70
2018-05-27T13:35:03.687Z,65.80
2018-05-27T13:37:32.785Z,72.60
2018-05-27T13:40:01.816Z,75.00
2018-05-27T13:42:30.102Z,75.00
2018-05-27T13:44:58.418Z,76.20
2018-05-27T13:47:26.638Z,78.10
2018-05-27T13:49:55.673Z,82.40
2018-05-27T13:52:23.912Z,81.70
2018-05-27T13:54:52.184Z,82.70
2018-05-27T13:57:21.830Z,83.50
2018-05-27T13:59:50.112Z,82.70
2018-05-27T14:02:18.327Z,83.20
2018-05-27T14:04:46.637Z,82.70
2018-05-27T14:07:14.831Z,83.90
2018-05-27T14:09:43.845Z,84.30
2018-05-27T14:12:12.111Z,84.20
2018-05-27T14:14:40.410Z,84.30
2018-05-27T14:17:09.281Z,84.40
2018-05-27T14:19:37.534Z,83.50
2018-05-27T14:22:05.795Z,84.00
2018-05-27T14:24:34.637Z,83.20
2018-05-27T14:27:03.941Z,83.00
2018-05-27T14:29:33.047Z,83.20
2018-05-27T14:32:02.961Z,83.00
2018-05-27T14:34:32.127Z,83.90
2018-05-27T14:37:00.358Z,83.80
2018-05-27T14:39:28.635Z,85.30
2018-05-27T14:41:57.629Z,85.70
2018-05-27T14:44:31.312Z,85.70
2018-05-27T14:47:00.465Z,86.10
2018-05-27T14:49:28.738Z,86.10
2018-05-27T14:51:57.003Z,84.40
2018-05-27T14:54:26.079Z,87.30
2018-05-27T14:56:55.695Z,87.70
2018-05-27T14:59:25.575Z,87.50
2018-05-27T15:01:53.840Z,87.50
2018-05-27T15:04:22.100Z,87.60
2018-05-27T15:06:50.346Z,87.80
2018-05-27T15:09:18.616Z,88.30
2018-05-27T15:11:47.097Z,87.10
2018-05-27T15:14:15.363Z,87.20
2018-05-27T15:16:43.686Z,87.20
2018-05-27T15:19:11.961Z,87.30
2018-05-27T15:21:40.217Z,88.00
2018-05-27T15:24:08.488Z,87.40
2018-05-27T15:26:36.698Z,87.50
2018-05-27T15:29:04.929Z,88.00
2018-05-27T15:31:33.181Z,86.40
2018-05-27T15:34:01.425Z,85.80
2018-05-27T15:36:29.680Z,86.20
2018-05-27T15:38:57.911Z,86.10
2018-05-27T15:41:26.236Z,85.50
2018-05-27T15:43:54.491Z,86.20
2018-05-27T15:46:23.525Z,84.00
2018-05-27T15:48:52.259Z,84.00
2018-05-27T15:51:20.517Z,83.00
2018-05-27T15:53:49.405Z,83.50
2018-05-27T15:56:17.655Z,83.70
2018-05-27T15:58:45.889Z,83.50
2018-05-27T16:01:14.154Z,82.50
2018-05-27T16:03:43.167Z,82.40
2018-05-27T16:06:11.453Z,82.40
2018-05-27T16:08:40.295Z,82.80
2018-05-27T16:11:08.550Z,83.90
2018-05-27T16:13:37.576Z,84.90
2018-05-27T16:16:05.840Z,84.80
2018-05-27T16:18:34.821Z,84.30
2018-05-27T16:21:03.829Z,85.20
2018-05-27T16:23:32.959Z,85.90
2018-05-27T16:26:01.268Z,85.80
2018-05-27T16:28:29.544Z,86.40
2018-05-27T16:30:57.795Z,87.10
2018-05-27T16:33:26.043Z,88.00
2018-05-27T16:35:55.105Z,89.10
2018-05-27T16:38:23.388Z,88.50
2018-05-27T16:40:51.638Z,89.00
2018-05-27T16:43:19.891Z,91.10
2018-05-27T16:45:48.967Z,91.60
2018-05-27T16:48:17.177Z,91.50
2018-05-27T16:50:45.460Z,90.70
2018-05-27T16:53:15.091Z,89.20
2018-05-27T16:55:43.640Z,89.20
2018-05-27T16:58:12.076Z,90.40
2018-05-27T17:00:40.359Z,90.60
2018-05-27T17:03:08.639Z,91.70
2018-05-27T17:05:36.908Z,91.10
2018-05-27T17:08:05.268Z,90.90
2018-05-27T17:10:34.308Z,92.50
2018-05-27T17:13:03.154Z,92.50
2018-05-27T17:15:32.199Z,93.20
2018-05-27T17:18:00.453Z,92.80
2018-05-27T17:20:28.733Z,93.00
2018-05-27T17:22:57.742Z,92.80
2018-05-27T17:25:25.987Z,92.80
2018-05-27T17:27:54.264Z,93.00
2018-05-27T17:30:22.538Z,94.10
2018-05-27T17:32:50.790Z,93.40
2018-05-27T17:35:19.037Z,93.30
2018-05-27T17:37:48.045Z,93.70
2018-05-27T17:40:16.876Z,93.70
2018-05-27T17:42:45.171Z,93.60
2018-05-27T17:45:14.175Z,93.50
2018-05-27T17:47:42.479Z,93.60
2018-05-27T17:50:11.509Z,93.50
2018-05-27T17:52:40.045Z,93.50
2018-05-27T17:55:08.313Z,93.50
2018-05-27T17:57:36.616Z,93.70
2018-05-27T18:00:05.631Z,93.90
2018-05-27T18:02:34.701Z,94.00
2018-05-27T18:05:02.966Z,94.00
2018-05-27T18:07:31.970Z,94.10
2018-05-27T18:10:00.249Z,94.10
2018-05-27T18:12:28.907Z,94.30
2018-05-27T18:14:57.201Z,94.50
2018-05-27T18:17:25.463Z,94.20
2018-05-27T18:19:54.257Z,94.10
2018-05-27T18:22:22.551Z,94.20
2018-05-27T18:24:50.844Z,94.00
2018-05-27T18:27:19.971Z,93.90
2018-05-27T18:29:48.256Z,93.50
2018-05-27T18:32:16.504Z,93.30
2018-05-27T18:34:44.756Z,93.40
2018-05-27T18:37:13.788Z,93.10
2018-05-27T18:39:42.199Z,93.10
2018-05-27T18:42:10.522Z,92.70
2018-05-27T18:44:38.804Z,92.70
2018-05-27T18:47:07.877Z,92.70
2018-05-27T18:49:36.857Z,92.70
2018-05-27T18:52:05.151Z,92.80
2018-05-27T18:54:34.275Z,92.90
2018-05-27T18:57:03.280Z,93.10
2018-05-27T18:59:32.311Z,92.90
2018-05-27T19:02:00.560Z,92.90
2018-05-27T19:04:28.949Z,92.80
2018-05-27T19:06:57.967Z,92.90
2018-05-27T19:09:26.214Z,92.90
2018-05-27T19:11:55.247Z,93.30
2018-05-27T19:14:23.477Z,93.00
2018-05-27T19:16:51.784Z,93.80
2018-05-27T19:19:20.891Z,94.00
2018-05-27T19:21:49.915Z,94.70
2018-05-27T19:24:18.229Z,94.40
2018-05-27T19:26:46.461Z,94.20
2018-05-27T19:29:15.566Z,93.70
2018-05-27T19:31:43.822Z,93.70
2018-05-27T19:34:12.834Z,94.50
2018-05-27T19:36:41.136Z,94.50
2018-05-27T19:39:09.476Z,95.00
2018-05-27T19:41:37.720Z,94.90
2018-05-27T19:44:06.030Z,95.10
2018-05-27T19:46:34.371Z,95.30
2018-05-27T19:49:02.656Z,95.70
2018-05-27T19:51:31.160Z,95.50
2018-05-27T19:53:59.433Z,95.50
2018-05-27T19:56:27.708Z,96.00
2018-05-27T19:58:56.027Z,95.70
2018-05-27T20:01:24.268Z,95.80
2018-05-27T20:03:52.533Z,96.20
2018-05-27T20:06:21.269Z,95.80
2018-05-27T20:08:49.534Z,95.80
2018-05-27T20:11:17.807Z,95.30
2018-05-27T20:13:46.070Z,95.50
2018-05-27T20:16:14.316Z,95.20
2018-05-27T20:18:43.378Z,95.00
2018-05-27T20:21:11.631Z,95.00
2018-05-27T20:23:40.701Z,94.90
2018-05-27T20:26:08.916Z,94.80
2018-05-27T20:28:37.925Z,94.60
2018-05-27T20:31:06.175Z,94.30
2018-05-27T20:33:34.449Z,94.10
2018-05-27T20:36:02.723Z,94.10
2018-05-27T20:38:31.793Z,93.90
2018-05-27T20:41:00.080Z,94.10
2018-05-27T20:43:28.417Z,94.20
2018-05-27T20:45:56.682Z,94.50
2018-05-27T20:48:25.747Z,94.60
2018-05-27T20:50:53.992Z,95.00
2018-05-27T20:53:22.287Z,95.00
2018-05-27T20:55:50.548Z,95.10
2018-05-27T20:58:18.829Z,95.20
2018-05-27T21:00:47.096Z,95.50
2018-05-27T21:03:15.817Z,95.50
2018-05-27T21:05:44.151Z,95.30
2018-05-27T21:08:13.187Z,95.50
2018-05-27T21:10:41.436Z,95.50
2018-05-27T21:13:10.496Z,95.30
2018-05-27T21:15:40.120Z,95.30
2018-05-27T21:18:08.390Z,95.60
2018-05-27T21:20:36.668Z,95.70
2018-05-27T21:23:05.517Z,95.80
2018-05-27T21:25:33.780Z,96.10
2018-05-27T21:28:02.808Z,96.50
2018-05-27T21:30:31.335Z,96.50
2018-05-27T21:33:00.086Z,96.60
2018-05-27T21:35:28.328Z,96.80
2018-05-27T21:37:57.376Z,97.30
2018-05-27T21:40:25.649Z,97.00
2018-05-27T21:42:53.892Z,97.10
2018-05-27T21:45:22.915Z,97.30
2018-05-27T21:47:51.181Z,97.30
2018-05-27T21:50:20.193Z,97.20
2018-05-27T21:52:48.524Z,97.20
2018-05-27T21:55:16.790Z,97.30
2018-05-27T21:57:45.036Z,97.50
2018-05-27T22:00:13.381Z,97.60
2018-05-27T22:02:42.652Z,97.70
2018-05-27T22:05:10.909Z,98.00
2018-05-27T22:07:39.765Z,97.70
2018-05-27T22:10:08.032Z,97.60
2018-05-27T22:12:36.731Z,97.50
2018-05-27T22:15:05.030Z,97.20
2018-05-27T22:17:33.281Z,97.40
2018-05-27T22:20:02.304Z,97.90
2018-05-27T22:25:12.150Z,98.20
2018-05-27T22:27:41.187Z,98.30
2018-05-27T22:30:10.206Z,98.30
2018-05-27T22:32:38.471Z,98.30
2018-05-27T22:35:08.192Z,98.30
2018-05-27T22:37:36.439Z,98.30
2018-05-27T22:40:04.726Z,98.40
2018-05-27T22:42:32.960Z,98.10
2018-05-27T22:45:01.241Z,98.00
2018-05-27T22:47:29.517Z,97.90
2018-05-27T22:49:57.776Z,97.90
2018-05-27T22:52:26.040Z,98.20
2018-05-27T22:54:55.816Z,98.10
2018-05-27T22:57:25.051Z,98.10
2018-05-27T22:59:54.183Z,98.10
2018-05-27T23:02:22.471Z,98.10
2018-05-27T23:04:50.721Z,97.90
2018-05-27T23:07:19.759Z,98.00
2018-05-27T23:09:48.043Z,98.00
2018-05-27T23:12:16.319Z,98.10
2018-05-27T23:14:44.586Z,98.10
2018-05-27T23:17:12.857Z,98.00
2018-05-27T23:19:41.900Z,98.20
2018-05-27T23:22:10.148Z,98.20
2018-05-27T23:24:43.499Z,98.50
2018-05-27T23:27:11.756Z,98.50
2018-05-27T23:29:40.029Z,98.60
2018-05-27T23:32:08.292Z,98.50
2018-05-27T23:34:36.553Z,98.30
2018-05-27T23:37:06.084Z,98.20
2018-05-27T23:39:34.368Z,98.10
2018-05-27T23:42:02.915Z,98.10
2018-05-27T23:44:31.184Z,97.90
2018-05-27T23:46:59.420Z,98.00
2018-05-27T23:49:27.713Z,98.10
2018-05-27T23:51:56.005Z,98.40
2018-05-27T23:54:24.250Z,98.50
2018-05-27T23:56:53.989Z,98.70
2018-05-27T23:59:23.749Z,98.70
